Terminal Aerodrome Forecast
Issued by NWS Memphis, TN

Home | Current Version | Previous Version | Text Only | Print | Product List | Glossary On
Versions: 1 2 3 4 5 6 7 8 9 10 11 12 13 14 15 16 17 18 19 20 21 22 23 24 25 26 27 28 29 30 31 32 33
000
FTUS44 KMEG 261721
TAFMEM
TAF
KMEM 261721Z 2618/2724 35010KT P6SM VCSH BKN012 OVC018
     FM261900 36011KT P6SM VCSH FEW015 OVC025
     FM262200 35009KT P6SM FEW025 BKN035
     FM270100 31004KT P6SM SCT250
     FM271000 28003KT 6SM BR SCT250
     FM271400 29008KT P6SM FEW050 SCT250=

USA.gov is the U.S. government's official web portal to all federal, state and local government web resources and services.